Time;durP1;ratioP1;P1;durP2;ratioP2;P2;SDS_P1;SDS_P2;PMS_P1;PMS_P2;Temp;Humidity;BMP_temperature;BMP_pressure;BME280_temperature;BME280_humidity;BME280_pressure;Samples;Min_cycle;Max_cycle;Signal;HPM_P1;HPM_P2
2023/05/26 00:01:05;;;;;;;;;9.67;8.00;;;;;14.50;67.73;100605.44;5080479;27;45505;-77
2023/05/26 00:03:31;;;;;;;;;10.50;10.50;;;;;14.41;67.96;100599.13;5080641;27;45445;-77
2023/05/26 00:05:57;;;;;;;;;9.75;9.75;;;;;14.13;67.80;100551.41;5080228;28;45488;-77
2023/05/26 00:08:23;;;;;;;;;10.50;9.25;;;;;14.29;68.71;100589.31;5080316;27;45455;-77
2023/05/26 00:10:48;;;;;;;;;11.00;10.00;;;;;14.48;68.90;100627.25;5080724;28;45300;-77
2023/05/26 00:13:14;;;;;;;;;11.25;10.00;;;;;13.93;69.83;100565.09;5081082;28;45221;-77
2023/05/26 00:15:41;;;;;;;;;14.50;12.50;;;;;13.89;69.93;100570.28;5078990;28;45478;-77
2023/05/26 00:18:06;;;;;;;;;12.50;11.50;;;;;14.03;70.04;100604.66;5080382;28;45400;-76
2023/05/26 00:20:33;;;;;;;;;12.00;8.50;;;;;14.11;69.97;100627.56;5080118;28;45397;-77
2023/05/26 00:22:58;;;;;;;;;9.25;9.00;;;;;13.66;70.38;100554.13;5080603;27;45465;-77
2023/05/26 00:25:24;;;;;;;;;9.50;9.25;;;;;13.91;70.12;100584.34;5079923;28;46117;-76
2023/05/26 00:27:50;;;;;;;;;10.50;9.50;;;;;14.08;69.85;100613.50;5079946;28;45484;-77
2023/05/26 00:30:15;;;;;;;;;6.00;5.00;;;;;14.07;69.78;100612.63;5080469;27;45375;-77
2023/05/26 00:32:41;;;;;;;;;11.25;10.50;;;;;13.91;69.99;100592.22;5080241;27;45498;-77
2023/05/26 00:35:07;;;;;;;;;10.00;9.00;;;;;14.04;69.59;100609.03;5079998;28;45562;-77
2023/05/26 00:37:32;;;;;;;;;7.50;7.50;;;;;14.01;69.53;100609.00;5079880;28;45349;-77
2023/05/26 00:39:59;;;;;;;;;8.75;8.50;;;;;13.89;69.00;100593.94;5079726;28;45468;-77
2023/05/26 00:42:24;;;;;;;;;9.00;8.25;;;;;13.52;69.20;100532.91;5080181;28;45248;-77
2023/05/26 00:44:51;;;;;;;;;10.25;10.00;;;;;13.83;69.40;100599.94;5061875;28;45554;-77
2023/05/26 00:47:17;;;;;;;;;6.50;6.25;;;;;13.23;70.31;100532.31;5080096;28;45365;-77
2023/05/26 00:49:44;;;;;;;;;9.00;9.00;;;;;13.57;70.73;100599.50;5079857;28;45560;-77
2023/05/26 00:52:10;;;;;;;;;11.00;8.50;;;;;13.51;70.64;100602.00;5080003;27;45327;-77
2023/05/26 00:54:39;;;;;;;;;11.00;10.00;;;;;13.40;70.58;100575.53;5079643;28;45503;-77
2023/05/26 00:57:06;;;;;;;;;9.25;8.50;;;;;13.47;70.16;100581.81;5079559;28;45171;-77
2023/05/26 00:59:32;;;;;;;;;8.00;8.00;;;;;13.13;70.75;100531.28;5079771;27;45358;-77
2023/05/26 01:01:58;;;;;;;;;8.50;7.00;;;;;13.36;70.69;100572.84;5079425;28;45457;-77
2023/05/26 01:04:24;;;;;;;;;10.75;9.00;;;;;13.40;70.57;100587.78;5079328;28;46141;-77
2023/05/26 01:06:50;;;;;;;;;10.25;9.50;;;;;13.27;70.70;100568.25;5079684;28;46137;-77
2023/05/26 01:09:16;;;;;;;;;9.00;8.25;;;;;12.96;70.21;100506.47;5079528;28;45490;-77
2023/05/26 01:12:03;;;;;;;;;10.00;9.00;;;;;13.37;70.49;100588.63;5079639;28;45390;-77
2023/05/26 01:14:41;;;;;;;;;8.75;8.75;;;;;13.23;70.74;100575.19;5079203;27;45484;-76
2023/05/26 01:17:17;;;;;;;;;8.75;8.00;;;;;13.28;70.54;100591.00;5079541;28;45395;-77
2023/05/26 01:20:10;;;;;;;;;8.00;7.67;;;;;13.27;70.60;100592.75;5079257;27;45521;-77
2023/05/26 01:22:41;;;;;;;;;10.00;8.75;;;;;13.26;70.54;100598.84;5079356;27;45526;-77
2023/05/26 01:25:25;;;;;;;;;9.00;9.00;;;;;13.22;70.44;100602.28;5079118;28;45222;-76
2023/05/26 01:27:59;;;;;;;;;9.75;8.75;;;;;13.23;70.52;100596.19;5079251;27;45478;-76
2023/05/26 01:30:26;;;;;;;;;7.50;6.75;;;;;13.02;70.60;100578.25;5079268;28;45283;-77
2023/05/26 01:32:51;;;;;;;;;7.75;7.00;;;;;13.16;70.72;100607.38;5079534;28;45232;-76
2023/05/26 01:35:17;;;;;;;;;9.00;8.00;;;;;13.12;70.53;100597.69;5079009;28;45324;-77
2023/05/26 01:37:45;;;;;;;;;9.00;8.00;;;;;13.06;70.46;100614.19;5079060;28;45250;-77
2023/05/26 01:40:11;;;;;;;;;8.25;8.00;;;;;12.65;70.75;100553.00;5079126;28;45220;-77
2023/05/26 01:42:41;;;;;;;;;7.50;6.75;;;;;12.45;70.46;100524.63;5079098;27;45323;-77
2023/05/26 01:45:18;;;;;;;;;7.50;7.25;;;;;12.94;70.77;100630.53;5078801;27;45475;-77
2023/05/26 01:47:50;;;;;;;;;9.25;8.50;;;;;12.87;71.87;100623.41;5078796;27;45214;-77
2023/05/26 01:50:19;;;;;;;;;11.50;8.75;;;;;12.77;72.35;100626.66;5078824;28;45520;-77
2023/05/26 01:52:48;;;;;;;;;8.75;8.00;;;;;12.29;73.00;100578.41;5079136;28;45320;-77
2023/05/26 01:55:15;;;;;;;;;7.00;7.00;;;;;12.46;73.14;100614.63;5060969;28;46163;-77
2023/05/26 01:57:43;;;;;;;;;7.75;7.00;;;;;12.33;72.74;100606.47;5078715;28;45457;-76
2023/05/26 02:00:12;;;;;;;;;7.50;7.00;;;;;12.32;72.51;100606.44;5078708;28;45477;-77
2023/05/26 02:02:37;;;;;;;;;8.75;8.00;;;;;12.60;72.77;100626.28;5078768;28;45469;-77
2023/05/26 02:05:03;;;;;;;;;7.50;7.00;;;;;12.67;71.90;100625.59;5078419;28;46199;-77
2023/05/26 02:07:29;;;;;;;;;8.25;7.25;;;;;12.73;71.66;100625.72;5078269;28;45489;-77
2023/05/26 02:09:55;;;;;;;;;9.00;8.00;;;;;12.50;71.92;100583.25;5078823;28;45502;-77
2023/05/26 02:12:20;;;;;;;;;9.00;8.75;;;;;12.58;72.32;100590.44;5078373;28;45580;-77
2023/05/26 02:14:46;;;;;;;;;7.00;7.00;;;;;12.68;72.08;100611.63;5078371;28;45505;-77
2023/05/26 02:17:13;;;;;;;;;9.75;8.75;;;;;12.77;71.93;100624.03;5078312;27;45490;-76
2023/05/26 02:19:40;;;;;;;;;8.25;8.25;;;;;12.74;72.31;100621.34;5078413;28;45529;-76
2023/05/26 02:22:06;;;;;;;;;11.00;8.75;;;;;12.67;71.99;100609.88;5078436;28;45296;-77
2023/05/26 02:24:32;;;;;;;;;11.50;9.00;;;;;11.80;71.79;100464.66;5059818;28;47631;-77
2023/05/26 02:26:57;;;;;;;;;12.00;9.75;;;;;12.67;72.36;100617.72;5078499;28;45833;-77
2023/05/26 02:29:23;;;;;;;;;8.25;7.75;;;;;12.73;72.22;100628.34;5078670;28;45227;-76
2023/05/26 02:31:48;;;;;;;;;9.00;8.75;;;;;12.34;72.31;100566.31;5078416;28;45423;-77
2023/05/26 02:34:14;;;;;;;;;8.00;8.00;;;;;12.63;72.30;100626.34;5077896;28;46119;-77
2023/05/26 02:36:40;;;;;;;;;10.50;9.25;;;;;12.42;71.89;100587.44;5059792;28;45552;-77
2023/05/26 02:39:05;;;;;;;;;9.75;8.25;;;;;12.71;71.78;100619.56;5078206;27;45381;-77
2023/05/26 02:41:31;;;;;;;;;10.75;8.00;;;;;12.63;71.68;100596.63;5078160;27;45564;-77
2023/05/26 02:43:56;;;;;;;;;8.50;7.75;;;;;12.54;71.62;100582.47;5078233;28;45381;-76
2023/05/26 02:46:22;;;;;;;;;9.50;7.75;;;;;12.39;71.89;100555.94;5078096;28;45546;-76
2023/05/26 02:48:47;;;;;;;;;8.25;7.00;;;;;12.66;72.50;100612.44;5077972;28;45515;-77
2023/05/26 02:51:13;;;;;;;;;11.75;10.50;;;;;12.57;72.33;100618.34;5078155;27;45687;-77
2023/05/26 02:53:40;;;;;;;;;6.00;5.25;;;;;12.06;72.31;100528.13;5077756;27;46079;-76
2023/05/26 02:56:06;;;;;;;;;11.50;10.75;;;;;12.02;72.70;100520.16;5077819;28;45477;-77
2023/05/26 02:58:32;;;;;;;;;8.00;8.00;;;;;12.50;73.35;100612.09;5077492;28;45426;-76
2023/05/26 03:00:57;;;;;;;;;11.50;10.00;;;;;12.43;73.27;100597.06;5078000;28;45423;-76
2023/05/26 03:03:23;;;;;;;;;10.75;9.00;;;;;12.31;72.95;100579.34;5077986;27;46129;-76
2023/05/26 03:05:48;;;;;;;;;9.25;8.00;;;;;12.44;72.90;100596.22;5077680;28;45409;-76
2023/05/26 03:08:14;;;;;;;;;9.75;8.75;;;;;12.49;72.74;100610.34;5077727;27;45417;-76
2023/05/26 03:10:40;;;;;;;;;7.50;7.50;;;;;12.41;72.92;100596.16;5077784;28;45358;-76
2023/05/26 03:13:06;;;;;;;;;8.75;6.75;;;;;12.47;72.42;100608.50;5077458;28;45826;-76
2023/05/26 03:15:35;;;;;;;;;10.25;8.25;;;;;12.50;72.13;100612.09;5077535;28;45412;-76
2023/05/26 03:18:01;;;;;;;;;8.00;7.75;;;;;12.50;72.15;100609.47;5077693;28;45301;-77
2023/05/26 03:20:26;;;;;;;;;8.00;7.75;;;;;12.48;72.08;100613.78;5078072;28;45553;-77
2023/05/26 03:22:52;;;;;;;;;8.75;8.00;;;;;12.36;72.22;100591.66;5077353;28;46371;-76
2023/05/26 03:25:18;;;;;;;;;6.75;6.50;;;;;12.44;72.29;100606.72;5077457;28;45403;-76
2023/05/26 03:27:43;;;;;;;;;8.25;7.25;;;;;12.06;72.25;100541.22;5077478;28;45467;-76
2023/05/26 03:30:09;;;;;;;;;10.00;9.25;;;;;12.36;72.45;100610.88;5077640;28;45378;-76
2023/05/26 03:32:35;;;;;;;;;8.75;8.00;;;;;12.26;72.20;100607.16;5077150;28;45750;-76
2023/05/26 03:35:01;;;;;;;;;7.25;7.25;;;;;12.16;72.94;100602.56;5077043;28;45492;-77
2023/05/26 03:37:27;;;;;;;;;10.00;8.50;;;;;12.04;72.74;100583.94;5077692;27;45250;-76
2023/05/26 03:39:52;;;;;;;;;8.50;7.75;;;;;11.96;72.43;100575.88;5077368;28;45403;-76
2023/05/26 03:42:18;;;;;;;;;9.00;7.75;;;;;11.78;72.87;100560.56;5076974;28;46038;-76
2023/05/26 03:44:43;;;;;;;;;7.00;7.00;;;;;12.09;72.75;100614.59;5077151;27;45445;-77
2023/05/26 03:47:09;;;;;;;;;10.50;8.25;;;;;12.06;72.92;100621.50;5077174;28;45517;-77
2023/05/26 03:49:34;;;;;;;;;7.50;6.00;;;;;11.81;72.74;100575.44;5058961;28;45686;-77
2023/05/26 03:52:01;;;;;;;;;8.00;6.50;;;;;11.96;72.71;100614.25;5077279;28;46039;-76
2023/05/26 03:54:26;;;;;;;;;7.50;7.00;;;;;11.60;72.13;100555.75;5077406;28;45476;-76
2023/05/26 03:56:54;;;;;;;;;7.75;7.50;;;;;12.03;72.29;100635.38;5077064;28;45534;-76
2023/05/26 03:59:19;;;;;;;;;10.75;7.50;;;;;11.46;73.26;100546.63;5077241;28;45541;-76
2023/05/26 04:01:45;;;;;;;;;7.00;7.00;;;;;11.74;73.19;100604.09;5076593;28;45569;-76
2023/05/26 04:04:11;;;;;;;;;10.00;7.00;;;;;11.76;72.81;100606.75;5076755;28;45489;-75
2023/05/26 04:06:37;;;;;;;;;8.50;7.75;;;;;11.89;73.01;100642.88;5076913;28;45513;-76
2023/05/26 04:09:03;;;;;;;;;10.00;7.25;;;;;11.54;72.85;100598.34;5077072;28;45542;-77
2023/05/26 04:11:29;;;;;;;;;8.75;8.25;;;;;11.70;73.85;100648.47;5076988;28;45453;-76
2023/05/26 04:13:55;;;;;;;;;7.00;7.00;;;;;11.53;73.70;100613.97;5076793;28;45457;-76
2023/05/26 04:16:20;;;;;;;;;8.25;7.00;;;;;11.59;73.93;100627.22;5076795;28;45466;-76
2023/05/26 04:18:46;;;;;;;;;7.75;7.50;;;;;11.62;73.51;100622.09;5058767;28;45493;-76
2023/05/26 04:21:12;;;;;;;;;7.25;7.00;;;;;11.71;73.71;100643.25;5076577;27;46196;-77
2023/05/26 04:23:38;;;;;;;;;8.25;8.25;;;;;11.49;73.68;100593.81;5076620;28;45555;-77
2023/05/26 04:26:04;;;;;;;;;9.00;7.25;;;;;11.80;73.20;100639.09;5076670;28;45291;-77
2023/05/26 04:28:30;;;;;;;;;9.50;8.25;;;;;11.76;74.10;100646.00;5077263;28;45327;-79
2023/05/26 04:30:55;;;;;;;;;9.75;7.50;;;;;11.66;74.08;100657.09;5076440;28;45435;-78
2023/05/26 04:33:22;;;;;;;;;11.50;10.75;;;;;11.67;74.20;100657.09;5076488;27;45256;-78
2023/05/26 04:35:47;;;;;;;;;7.50;7.00;;;;;11.69;73.85;100652.78;5077930;27;45189;-77
2023/05/26 04:38:15;;;;;;;;;10.00;7.50;;;;;11.30;73.79;100582.84;5080352;28;45359;-79
2023/05/26 04:40:42;;;;;;;;;10.50;7.75;;;;;11.77;73.47;100647.75;5079863;28;45360;-76
2023/05/26 04:43:08;;;;;;;;;7.50;6.50;;;;;11.27;73.49;100553.13;5079597;27;45532;-78
2023/05/26 04:45:35;;;;;;;;;10.75;8.25;;;;;11.87;72.79;100657.63;5080073;28;45379;-78
2023/05/26 04:48:00;;;;;;;;;8.50;7.75;;;;;10.88;72.83;100489.34;5080141;27;45386;-78
2023/05/26 04:50:26;;;;;;;;;8.25;7.25;;;;;11.54;72.86;100608.78;5079714;28;45860;-78
2023/05/26 04:52:52;;;;;;;;;7.75;7.00;;;;;11.95;72.67;100668.34;5079800;28;45490;-77
2023/05/26 04:55:18;;;;;;;;;8.25;7.50;;;;;11.98;73.12;100670.16;5079848;28;45545;-78
2023/05/26 04:57:44;;;;;;;;;11.00;11.00;;;;;11.93;73.12;100675.28;5079849;28;45483;-78
2023/05/26 05:00:13;;;;;;;;;9.25;8.50;;;;;11.61;73.07;100646.47;5079316;27;45228;-78
2023/05/26 05:02:38;;;;;;;;;9.50;9.50;;;;;11.66;73.21;100650.09;5078682;27;45441;-77
2023/05/26 05:05:04;;;;;;;;;9.50;8.75;;;;;11.67;73.81;100659.72;5079551;28;45508;-77
2023/05/26 05:07:30;;;;;;;;;7.75;7.00;;;;;11.72;73.78;100665.97;5061348;28;45518;-77
2023/05/26 05:09:55;;;;;;;;;9.50;8.25;;;;;11.69;72.98;100633.59;5061087;28;45398;-77
2023/05/26 05:12:21;;;;;;;;;8.00;6.50;;;;;11.94;72.41;100666.59;5079386;28;45473;-75
2023/05/26 05:14:47;;;;;;;;;6.75;6.75;;;;;12.14;72.18;100681.06;5079463;28;45322;-76
2023/05/26 05:17:12;;;;;;;;;4.25;3.00;;;;;11.98;72.10;100637.03;5079658;28;45517;-75
2023/05/26 05:19:38;;;;;;;;;7.25;7.25;;;;;12.28;72.08;100677.94;5079123;28;46040;-75
2023/05/26 05:22:03;;;;;;;;;5.25;5.25;;;;;11.97;71.95;100622.13;5079453;28;45319;-75
2023/05/26 05:24:29;;;;;;;;;12.00;11.75;;;;;12.46;71.77;100682.72;5079147;27;45450;-77
2023/05/26 05:26:54;;;;;;;;;8.25;8.25;;;;;12.07;71.47;100602.31;5079394;28;45568;-77
2023/05/26 05:29:20;;;;;;;;;8.25;7.75;;;;;12.33;70.75;100635.28;5078892;27;46006;-77
2023/05/26 05:31:46;;;;;;;;;8.25;7.25;;;;;12.63;70.54;100676.13;5078847;27;45326;-77
2023/05/26 05:34:11;;;;;;;;;8.25;8.25;;;;;12.62;70.11;100650.78;5079101;28;45573;-77
2023/05/26 05:36:37;;;;;;;;;7.75;7.00;;;;;12.62;69.94;100637.69;5080765;27;45270;-75
2023/05/26 05:39:02;;;;;;;;;15.50;12.75;;;;;12.76;69.47;100651.13;5079976;27;45374;-75
2023/05/26 05:41:28;;;;;;;;;8.00;7.75;;;;;12.91;70.07;100675.06;5078838;27;45437;-76
2023/05/26 05:43:56;;;;;;;;;7.75;7.75;;;;;13.14;69.85;100690.41;5078781;28;45343;-74
2023/05/26 05:46:23;;;;;;;;;9.25;8.00;;;;;13.26;69.16;100674.94;5078544;28;45469;-76
2023/05/26 05:48:49;;;;;;;;;10.75;7.25;;;;;13.33;68.76;100679.50;5078139;28;46510;-75
2023/05/26 05:51:15;;;;;;;;;11.25;9.00;;;;;13.36;69.00;100681.28;5078686;27;45232;-76
2023/05/26 05:53:40;;;;;;;;;10.75;10.75;;;;;13.32;69.06;100659.34;5078777;28;45208;-76
2023/05/26 05:56:06;;;;;;;;;8.00;7.00;;;;;13.48;69.00;100676.28;5079508;28;45436;-76
2023/05/26 05:58:31;;;;;;;;;8.00;8.00;;;;;13.52;68.72;100665.00;5060072;28;46281;-75
2023/05/26 06:00:57;;;;;;;;;7.00;6.75;;;;;13.70;68.31;100674.97;5078290;27;45480;-77
2023/05/26 06:03:23;;;;;;;;;6.00;6.00;;;;;14.78;68.21;100678.56;5078541;27;45470;-77
2023/05/26 06:05:48;;;;;;;;;7.00;7.00;;;;;17.99;61.01;100672.56;5078794;27;45311;-77
2023/05/26 06:08:14;;;;;;;;;7.50;7.00;;;;;20.43;53.21;100644.31;5078273;28;45441;-75
2023/05/26 06:10:39;;;;;;;;;9.00;8.00;;;;;22.34;48.07;100640.19;5078337;28;45415;-77
2023/05/26 06:13:05;;;;;;;;;8.33;6.67;;;;;23.78;46.23;100649.81;5060398;28;45414;-77
2023/05/26 06:15:30;;;;;;;;;7.00;6.00;;;;;25.07;42.20;100642.97;5078402;27;45479;-76
2023/05/26 06:17:56;;;;;;;;;5.33;5.00;;;;;26.02;40.52;100638.38;5078287;28;45810;-77
2023/05/26 06:20:22;;;;;;;;;8.33;8.00;;;;;26.93;37.72;100650.44;5078349;28;45442;-77
2023/05/26 06:22:47;;;;;;;;;7.33;7.33;;;;;27.83;36.00;100650.63;5078389;28;45240;-78
2023/05/26 06:25:13;;;;;;;;;8.00;7.00;;;;;28.57;36.94;100658.38;5077867;28;45430;-77
2023/05/26 06:27:39;;;;;;;;;7.00;7.00;;;;;29.37;34.48;100653.94;5078015;28;46129;-77
2023/05/26 06:30:05;;;;;;;;;6.33;6.00;;;;;29.68;33.46;100648.84;5078020;28;45489;-78
2023/05/26 06:32:31;;;;;;;;;8.00;6.67;;;;;29.81;32.45;100651.88;5077674;28;45441;-76
2023/05/26 06:34:56;;;;;;;;;5.00;5.00;;;;;29.99;31.64;100644.72;5078073;28;45481;-77
2023/05/26 06:37:22;;;;;;;;;6.67;6.67;;;;;30.37;31.74;100650.03;5077986;28;45307;-76
2023/05/26 06:39:47;;;;;;;;;6.33;6.33;;;;;30.63;30.73;100624.41;5077911;28;45405;-77
2023/05/26 06:42:13;;;;;;;;;6.33;6.00;;;;;31.76;29.30;100637.25;5077947;28;45325;-76
2023/05/26 06:44:38;;;;;;;;;7.00;7.00;;;;;32.25;27.93;100643.41;5078180;28;45597;-76
2023/05/26 06:47:04;;;;;;;;;6.67;6.00;;;;;32.41;28.44;100647.88;5077605;28;46107;-78
2023/05/26 06:49:30;;;;;;;;;5.33;5.33;;;;;32.99;28.53;100635.34;5077660;28;45332;-76
2023/05/26 06:51:55;;;;;;;;;7.33;5.33;;;;;33.49;27.25;100663.81;5077876;28;45902;-77
2023/05/26 06:54:21;;;;;;;;;3.00;2.67;;;;;33.62;25.42;100620.56;5078153;28;45344;-77
2023/05/26 06:56:46;;;;;;;;;6.67;6.00;;;;;34.00;25.53;100655.09;5059399;28;45556;-77
2023/05/26 06:59:12;;;;;;;;;9.00;9.00;;;;;34.78;26.32;100667.94;5077258;28;45325;-79
2023/05/26 07:01:37;;;;;;;;;5.33;4.67;;;;;35.08;24.63;100675.78;5078038;28;45515;-82
2023/05/26 07:04:03;;;;;;;;;4.67;4.67;;;;;35.28;23.99;100668.97;5077942;28;45371;-79
2023/05/26 07:06:28;;;;;;;;;5.67;4.33;;;;;35.69;23.09;100666.94;5077455;28;46105;-81
2023/05/26 07:08:54;;;;;;;;;8.33;8.00;;;;;36.10;23.43;100661.13;5077599;28;45177;-78
2023/05/26 07:11:21;;;;;;;;;4.67;4.67;;;;;36.28;22.79;100645.28;5077789;28;45362;-80
2023/05/26 07:13:46;;;;;;;;;6.67;5.33;;;;;37.35;22.75;100663.25;5077578;28;45374;-80
2023/05/26 07:16:12;;;;;;;;;6.00;6.00;;;;;38.01;21.56;100654.22;5077596;28;46177;-79
2023/05/26 07:18:38;;;;;;;;;5.00;5.00;;;;;37.95;21.46;100641.13;5076629;28;45253;-86
2023/05/26 07:21:04;;;;;;;;;5.33;5.33;;;;;38.45;21.69;100649.59;5073965;28;45507;-82
2023/05/26 07:23:32;;;;;;;;;7.00;5.00;;;;;39.32;20.88;100630.16;5076787;28;45464;-80
2023/05/26 07:25:58;;;;;;;;;5.33;5.00;;;;;39.25;20.59;100645.38;5076552;28;45348;-80
2023/05/26 07:28:24;;;;;;;;;7.00;7.00;;;;;39.56;20.07;100651.69;5073762;28;45501;-84
2023/05/26 07:30:49;;;;;;;;;6.00;6.00;;;;;39.50;20.39;100656.88;5076872;28;45575;-78
2023/05/26 07:33:15;;;;;;;;;6.00;5.00;;;;;40.22;19.48;100652.97;5076797;28;45254;-77
2023/05/26 07:35:40;;;;;;;;;7.67;6.00;;;;;40.53;19.56;100642.75;5076695;28;45511;-78
2023/05/26 07:38:07;;;;;;;;;5.67;5.00;;;;;40.34;19.64;100642.78;5076368;28;45509;-81
2023/05/26 07:40:34;;;;;;;;;5.00;5.00;;;;;40.19;19.60;100649.66;5076375;28;45288;-77
2023/05/26 07:43:04;;;;;;;;;6.67;5.00;;;;;40.05;18.89;100642.75;5076226;28;45509;-77
2023/05/26 07:45:30;;;;;;;;;5.00;5.00;;;;;40.40;21.47;100647.66;5076759;27;45392;-78
2023/05/26 07:47:55;;;;;;;;;5.00;5.00;;;;;41.08;18.77;100644.78;5076914;28;45323;-76
2023/05/26 07:50:21;;;;;;;;;6.33;6.33;;;;;41.29;17.96;100644.59;5076793;27;45189;-79
2023/05/26 07:52:46;;;;;;;;;4.67;4.00;;;;;41.32;18.99;100641.53;5077854;28;45480;-79
2023/05/26 07:55:12;;;;;;;;;6.00;6.00;;;;;41.43;18.46;100645.97;5076956;28;46045;-75
2023/05/26 07:57:38;;;;;;;;;5.33;5.33;;;;;41.98;17.62;100634.06;5076251;28;45350;-82
2023/05/26 08:00:05;;;;;;;;;5.33;5.00;;;;;42.28;18.30;100621.88;5058477;28;45517;-83
2023/05/26 08:02:30;;;;;;;;;4.00;3.33;;;;;41.64;17.49;100633.91;5077197;28;45481;-77
2023/05/26 08:04:56;;;;;;;;;5.67;4.00;;;;;41.26;18.83;100628.44;5075793;28;46128;-76
2023/05/26 08:07:21;;;;;;;;;1.67;1.00;;;;;42.35;18.21;100618.50;5076448;27;45330;-75
2023/05/26 08:09:47;;;;;;;;;4.00;4.00;;;;;42.91;17.10;100631.81;5076712;28;45456;-75
2023/05/26 08:12:13;;;;;;;;;6.00;6.00;;;;;42.65;17.53;100634.53;5080413;27;45509;-75
2023/05/26 08:14:39;;;;;;;;;4.00;4.00;;;;;42.74;17.07;100624.47;5079947;27;46164;-76
2023/05/26 08:17:04;;;;;;;;;6.33;4.00;;;;;43.21;17.39;100643.31;5079367;28;45201;-74
2023/05/26 08:19:30;;;;;;;;;4.00;4.00;;;;;42.56;17.39;100632.78;5079653;28;45395;-76
2023/05/26 08:21:55;;;;;;;;;7.33;6.00;;;;;42.20;19.08;100643.78;5079678;28;45301;-75
2023/05/26 08:24:23;;;;;;;;;5.00;5.00;;;;;42.67;17.79;100623.41;5079022;28;45477;-76
2023/05/26 08:26:49;;;;;;;;;6.67;5.33;;;;;42.30;18.06;100639.06;5078986;28;45385;-77
2023/05/26 08:29:15;;;;;;;;;16.67;12.67;;;;;42.61;18.13;100635.88;5079122;28;45584;-78
2023/05/26 08:31:40;;;;;;;;;6.00;5.67;;;;;41.89;18.16;100635.88;5078926;28;45521;-77
2023/05/26 08:34:06;;;;;;;;;6.00;6.00;;;;;42.38;17.93;100621.78;5078927;28;45542;-74
2023/05/26 08:36:32;;;;;;;;;6.33;6.00;;;;;42.71;17.80;100619.28;5078981;28;45508;-75
2023/05/26 08:38:58;;;;;;;;;5.00;4.33;;;;;43.03;17.43;100624.16;5078743;28;45530;-73
2023/05/26 08:41:28;;;;;;;;;8.33;6.00;;;;;42.26;18.86;100618.44;5078773;28;45469;-74
2023/05/26 08:43:59;;;;;;;;;7.00;6.00;;;;;42.11;18.34;100622.75;5078915;28;45449;-75
2023/05/26 08:46:26;;;;;;;;;5.00;3.67;;;;;42.38;18.37;100621.78;5079164;28;45535;-75
2023/05/26 08:48:53;;;;;;;;;5.33;5.33;;;;;42.44;18.53;100612.03;5079122;28;45263;-74
2023/05/26 08:51:19;;;;;;;;;6.00;4.00;;;;;42.50;18.32;100622.41;5079175;28;45410;-76
2023/05/26 08:53:45;;;;;;;;;5.33;5.00;;;;;42.50;18.34;100631.53;5079117;28;45382;-76
2023/05/26 08:56:11;;;;;;;;;6.00;6.00;;;;;42.57;18.68;100630.88;5079401;28;45464;-73
2023/05/26 08:58:38;;;;;;;;;5.00;5.00;;;;;42.25;18.45;100626.81;5079516;28;45338;-80
2023/05/26 09:01:04;;;;;;;;;6.00;4.67;;;;;41.96;19.36;100627.03;5079594;27;45204;-74
2023/05/26 09:03:29;;;;;;;;;5.00;5.00;;;;;41.60;18.66;100629.72;5079058;28;45223;-75
2023/05/26 09:05:55;;;;;;;;;4.00;4.00;;;;;41.26;19.54;100628.44;5078630;28;45261;-74
2023/05/26 09:08:21;;;;;;;;;5.00;5.00;;;;;41.44;19.27;100624.91;5078550;28;45387;-73
2023/05/26 09:10:47;;;;;;;;;5.33;5.33;;;;;41.01;19.40;100602.59;5079471;28;45446;-84
2023/05/26 09:13:18;;;;;;;;;5.00;5.00;;;;;39.58;20.14;100625.09;5078382;28;45974;-80
2023/05/26 09:15:49;;;;;;;;;6.00;6.00;;;;;39.88;20.54;100625.19;5078933;28;45610;-77
2023/05/26 09:18:14;;;;;;;;;4.00;4.00;;;;;40.40;19.72;100623.03;5079183;28;45406;-76
2023/05/26 09:20:45;;;;;;;;;7.00;6.00;;;;;39.96;20.31;100619.84;5078813;28;45382;-77
2023/05/26 09:23:13;;;;;;;;;5.67;5.67;;;;;39.47;20.75;100627.94;5078508;28;45377;-79
2023/05/26 09:25:43;;;;;;;;;8.00;7.33;;;;;39.20;20.92;100609.41;5078845;28;45508;-76
2023/05/26 09:28:13;;;;;;;;;5.67;5.67;;;;;39.19;21.00;100615.88;5078815;28;45398;-77
2023/05/26 09:30:43;;;;;;;;;5.00;5.00;;;;;39.33;21.46;100601.81;5079172;27;45393;-76
2023/05/26 09:33:10;;;;;;;;;6.00;6.00;;;;;39.86;21.67;100606.13;5078235;27;45508;-73
2023/05/26 09:35:41;;;;;;;;;4.67;4.67;;;;;38.87;21.47;100605.06;5078722;27;45278;-76
2023/05/26 09:38:11;;;;;;;;;7.33;6.33;;;;;37.80;22.09;100616.88;5079437;27;45420;-74
2023/05/26 09:40:44;;;;;;;;;6.00;6.00;;;;;37.39;23.36;100593.88;5078840;28;45405;-76
2023/05/26 09:43:10;;;;;;;;;5.67;5.00;;;;;37.19;23.70;100611.84;5078547;28;46317;-76
2023/05/26 09:45:37;;;;;;;;;4.67;4.33;;;;;36.35;24.13;100578.56;5078443;28;45311;-76
2023/05/26 09:48:05;;;;;;;;;6.00;4.67;;;;;36.36;24.34;100598.47;5078659;27;45496;-76
2023/05/26 09:50:35;;;;;;;;;5.33;4.67;;;;;36.36;24.91;100617.50;5077932;28;45501;-74
2023/05/26 09:53:05;;;;;;;;;6.33;6.00;;;;;35.82;25.06;100614.28;5077581;28;46245;-76
2023/05/26 09:55:32;;;;;;;;;5.67;5.67;;;;;35.06;25.42;100608.00;5077374;28;45569;-75
2023/05/26 09:58:04;;;;;;;;;5.67;5.67;;;;;34.55;26.95;100607.97;5077709;28;45335;-74
2023/05/26 10:00:32;;;;;;;;;5.33;5.00;;;;;33.77;27.72;100616.84;5078217;28;45429;-74
2023/05/26 10:02:59;;;;;;;;;5.00;4.00;;;;;33.54;27.80;100614.75;5078360;28;46100;-74
2023/05/26 10:05:25;;;;;;;;;7.33;7.00;;;;;33.27;27.80;100612.88;5078308;27;45498;-78
2023/05/26 10:07:51;;;;;;;;;6.33;6.33;;;;;32.96;29.11;100603.94;5078493;27;45358;-75
2023/05/26 10:10:18;;;;;;;;;7.33;7.00;;;;;32.76;29.03;100617.84;5076831;28;45416;-73
2023/05/26 10:12:44;;;;;;;;;5.33;5.33;;;;;32.59;29.03;100578.31;5077933;28;46283;-73
2023/05/26 10:15:10;;;;;;;;;5.67;5.67;;;;;32.77;29.09;100587.13;5078017;28;45477;-79
2023/05/26 10:17:35;;;;;;;;;7.33;5.67;;;;;33.01;28.61;100593.72;5078248;27;45407;-74
2023/05/26 10:20:02;;;;;;;;;15.00;14.33;;;;;33.02;29.13;100598.13;5078276;28;45218;-74
2023/05/26 10:22:30;;;;;;;;;5.67;5.67;;;;;33.43;28.82;100589.25;5077654;28;46045;-78
2023/05/26 10:25:03;;;;;;;;;6.00;6.00;;;;;33.21;28.72;100594.31;5077723;27;45409;-74
2023/05/26 10:27:36;;;;;;;;;4.67;4.67;;;;;33.00;28.34;100597.38;5077821;28;45281;-74
2023/05/26 10:30:11;;;;;;;;;6.00;5.00;;;;;33.15;28.89;100591.97;5077989;27;45253;-74
2023/05/26 10:32:53;;;;;;;;;4.67;4.67;;;;;32.74;29.56;100584.63;5077318;28;45509;-74
2023/05/26 10:35:22;;;;;;;;;7.00;5.33;;;;;32.65;29.05;100589.63;5077749;28;45556;-75
2023/05/26 10:38:13;;;;;;;;;6.00;5.00;;;;;32.45;29.34;100593.53;5077982;28;45953;-79
2023/05/26 10:40:42;;;;;;;;;5.67;5.33;;;;;31.91;30.24;100556.19;5077961;28;45383;-74
2023/05/26 10:43:22;;;;;;;;;4.00;4.00;;;;;32.19;29.10;100592.41;5077485;28;46020;-74
2023/05/26 10:45:51;;;;;;;;;5.67;5.67;;;;;31.77;30.23;100598.44;5077760;27;45309;-79
2023/05/26 10:48:17;;;;;;;;;4.67;4.67;;;;;31.35;30.25;100598.06;5077848;28;45277;-74
2023/05/26 10:50:55;;;;;;;;;7.00;5.33;;;;;30.90;31.56;100588.88;5078010;27;45332;-74
2023/05/26 10:53:22;;;;;;;;;6.00;6.00;;;;;30.90;31.40;100575.41;5077627;28;45196;-75
2023/05/26 10:56:03;;;;;;;;;5.00;4.67;;;;;30.79;31.61;100586.72;5077736;28;45822;-84
2023/05/26 10:58:31;;;;;;;;;4.67;4.67;;;;;30.78;31.67;100578.69;5059667;28;45536;-83
2023/05/26 11:01:06;;;;;;;;;7.33;5.33;;;;;30.13;31.75;100509.31;5078040;28;45241;-84
2023/05/26 11:03:41;;;;;;;;;8.33;7.67;;;;;30.07;32.53;100521.28;5077666;27;45469;-80
2023/05/26 11:06:07;;;;;;;;;4.67;4.00;;;;;30.21;31.85;100578.97;5075432;28;45644;-84
2023/05/26 11:08:49;;;;;;;;;6.33;5.00;;;;;30.03;32.73;100580.78;5077787;28;45393;-85
2023/05/26 11:11:27;;;;;;;;;5.00;5.00;;;;;29.34;33.22;100541.94;5077584;28;45437;-82
2023/05/26 11:14:02;;;;;;;;;5.00;5.00;;;;;29.64;33.08;100565.63;5077441;28;46044;-77
2023/05/26 11:16:32;;;;;;;;;6.00;5.33;;;;;29.58;33.33;100563.25;5077241;28;45502;-77
2023/05/26 11:19:03;;;;;;;;;7.00;6.00;;;;;28.77;34.41;100541.91;5077499;28;45355;-77
2023/05/26 11:21:31;;;;;;;;;8.00;7.00;;;;;28.97;34.87;100562.50;5077346;28;45407;-77
2023/05/26 11:23:59;;;;;;;;;8.00;7.00;;;;;29.18;34.90;100566.03;5076961;28;46045;-77